Lexington (LEX/KLEX)

Map

Destinations

Information

Location
Lexington, KY
Local Time
21:52 / 9:52 pm
GMT Time
01:52 / 1:52 am
Gates
B2
No FAA reported delays
METAR KLEX 270054Z 28003KT 10SM BKN065 21/11 A3009 RMK AO2 SLP184 T02060106
TAF KLEX 262320Z 2700/2724 29005KT P6SM FEW060 SCT200 FM270700 VRB03KT P6SM VCSH SCT050 BKN100 FM271200 34005KT P6SM FEW045 SCT150